createdAt,value
2018-11-03T00:00:10.687Z,911.24
2018-11-03T00:01:10.564Z,911.25
2018-11-03T00:02:10.542Z,911.25
2018-11-03T00:03:10.509Z,911.31
2018-11-03T00:04:10.484Z,911.30
2018-11-03T00:05:10.455Z,911.30
2018-11-03T00:06:10.397Z,911.32
2018-11-03T00:07:10.410Z,911.33
2018-11-03T00:08:10.348Z,911.35
2018-11-03T00:09:10.318Z,911.36
2018-11-03T00:11:10.239Z,911.38
2018-11-03T00:12:10.436Z,911.36
2018-11-03T00:13:10.172Z,911.40
2018-11-03T00:14:10.167Z,911.42
2018-11-03T00:16:10.571Z,911.49
2018-11-03T00:17:10.195Z,911.53
2018-11-03T00:18:10.206Z,911.51
2018-11-03T00:19:10.060Z,911.55
2018-11-03T00:20:10.172Z,911.58
2018-11-03T00:21:10.065Z,911.55
2018-11-03T00:22:10.875Z,911.60
2018-11-03T00:23:09.999Z,911.63
2018-11-03T00:24:09.904Z,911.64
2018-11-03T00:25:09.955Z,911.65
2018-11-03T00:26:10.040Z,911.66
2018-11-03T00:27:11.137Z,911.68
2018-11-03T00:29:09.954Z,911.72
2018-11-03T00:30:09.916Z,911.71
2018-11-03T00:31:10.510Z,911.73
2018-11-03T00:32:09.673Z,911.74
2018-11-03T00:33:09.731Z,911.78
2018-11-03T00:34:09.926Z,911.74
2018-11-03T00:35:10.431Z,911.72
2018-11-03T00:36:09.707Z,911.75
2018-11-03T00:37:09.528Z,911.76
2018-11-03T00:38:10.915Z,911.77
2018-11-03T00:39:09.693Z,911.74
2018-11-03T00:40:09.536Z,911.78
2018-11-03T00:41:09.314Z,911.78
2018-11-03T00:42:09.328Z,911.81
2018-11-03T00:43:09.232Z,911.80
2018-11-03T00:44:09.221Z,911.77
2018-11-03T00:45:09.524Z,911.75
2018-11-03T00:46:09.157Z,911.77
2018-11-03T00:47:09.106Z,911.74
2018-11-03T00:48:09.071Z,911.70
2018-11-03T00:49:09.063Z,911.75
2018-11-03T00:50:09.009Z,911.71
2018-11-03T00:51:09.163Z,911.71
2018-11-03T00:52:09.016Z,911.72
2018-11-03T00:53:08.993Z,911.71
2018-11-03T00:54:08.908Z,911.71
2018-11-03T00:55:08.876Z,911.67
2018-11-03T00:56:08.837Z,911.67
2018-11-03T00:57:09.008Z,911.66
2018-11-03T00:58:08.836Z,911.62
2018-11-03T00:59:08.755Z,911.62
2018-11-03T01:00:08.701Z,911.61
2018-11-03T01:01:08.704Z,911.60
2018-11-03T01:02:08.819Z,911.56
2018-11-03T01:03:08.609Z,911.59
2018-11-03T01:04:08.589Z,911.57
2018-11-03T01:05:08.580Z,911.55
2018-11-03T01:06:08.514Z,911.52
2018-11-03T01:07:08.547Z,911.55
2018-11-03T01:08:09.010Z,911.52
2018-11-03T01:09:09.296Z,911.50
2018-11-03T01:10:08.600Z,911.53
2018-11-03T01:11:08.663Z,911.49
2018-11-03T01:12:08.342Z,911.51
2018-11-03T01:14:08.291Z,911.49
2018-11-03T01:15:08.249Z,911.50
2018-11-03T01:16:08.203Z,911.48
2018-11-03T01:17:08.194Z,911.52
2018-11-03T01:18:08.131Z,911.47
2018-11-03T01:19:08.118Z,911.48
2018-11-03T01:20:08.133Z,911.49
2018-11-03T01:21:08.058Z,911.47
2018-11-03T01:22:08.032Z,911.50
2018-11-03T01:23:08.092Z,911.45
2018-11-03T01:24:07.959Z,911.43
2018-11-03T01:25:07.939Z,911.41
2018-11-03T01:26:07.896Z,911.38
2018-11-03T01:27:07.929Z,911.38
2018-11-03T01:28:07.847Z,911.34
2018-11-03T01:29:08.123Z,911.32
2018-11-03T01:30:07.781Z,911.35
2018-11-03T01:31:07.755Z,911.31
2018-11-03T01:32:07.744Z,911.34
2018-11-03T01:33:07.700Z,911.34
2018-11-03T01:34:07.631Z,911.33
2018-11-03T01:35:07.747Z,911.34
2018-11-03T01:36:07.598Z,911.29
2018-11-03T01:37:07.555Z,911.31
2018-11-03T01:38:07.549Z,911.26
2018-11-03T01:39:07.498Z,911.30
2018-11-03T01:40:07.471Z,911.26
2018-11-03T01:41:07.411Z,911.27
2018-11-03T01:42:07.401Z,911.23
2018-11-03T01:43:07.368Z,911.24
2018-11-03T01:44:07.325Z,911.22
2018-11-03T01:45:07.311Z,911.23
2018-11-03T01:46:07.536Z,911.22
2018-11-03T01:47:07.250Z,911.20
2018-11-03T01:48:07.230Z,911.19
2018-11-03T01:49:07.204Z,911.19
2018-11-03T01:50:07.171Z,911.17
2018-11-03T01:51:07.093Z,911.18
2018-11-03T01:52:08.639Z,911.15
2018-11-03T01:53:07.052Z,911.15
2018-11-03T01:54:07.001Z,911.12
2018-11-03T01:55:06.989Z,911.15
2018-11-03T01:56:06.970Z,911.11
2018-11-03T01:57:06.928Z,911.13
2018-11-03T01:58:07.148Z,911.11
2018-11-03T01:59:06.858Z,911.12
2018-11-03T02:00:06.820Z,911.12
2018-11-03T02:01:06.790Z,911.09
2018-11-03T02:02:06.754Z,911.06
2018-11-03T02:03:06.735Z,911.08
2018-11-03T02:04:06.859Z,911.05
2018-11-03T02:05:06.716Z,911.00
2018-11-03T02:06:06.633Z,911.02
2018-11-03T02:07:06.633Z,910.98
2018-11-03T02:08:06.576Z,910.96
2018-11-03T02:09:06.560Z,910.94
2018-11-03T02:10:06.492Z,910.94
2018-11-03T02:11:06.496Z,910.91
2018-11-03T02:12:06.440Z,910.92
2018-11-03T02:13:06.440Z,910.91
2018-11-03T02:14:06.390Z,910.89
2018-11-03T02:15:06.367Z,910.84
2018-11-03T02:16:06.389Z,910.86
2018-11-03T02:17:06.278Z,910.80
2018-11-03T02:18:06.252Z,910.78
2018-11-03T02:19:06.230Z,910.78
2018-11-03T02:20:06.196Z,910.75
2018-11-03T02:21:06.166Z,910.76
2018-11-03T02:22:06.126Z,910.74
2018-11-03T02:23:06.086Z,910.71
2018-11-03T02:24:06.074Z,910.67
2018-11-03T02:25:06.183Z,910.69
2018-11-03T02:26:06.032Z,910.71
2018-11-03T02:27:05.976Z,910.67
2018-11-03T02:28:05.942Z,910.66
2018-11-03T02:29:05.917Z,910.65
2018-11-03T02:30:05.880Z,910.70
2018-11-03T02:31:06.066Z,910.64
2018-11-03T02:32:05.810Z,910.66
2018-11-03T02:33:05.787Z,910.64
2018-11-03T02:34:06.017Z,910.64
2018-11-03T02:35:05.721Z,910.63
2018-11-03T02:36:05.675Z,910.61
2018-11-03T02:37:05.674Z,910.61
2018-11-03T02:38:05.669Z,910.60
2018-11-03T02:39:05.587Z,910.56
2018-11-03T02:40:05.576Z,910.60
2018-11-03T02:41:05.574Z,910.58
2018-11-03T02:42:05.760Z,910.56
2018-11-03T02:43:05.463Z,910.55
2018-11-03T02:44:05.447Z,910.58
2018-11-03T02:45:05.425Z,910.53
2018-11-03T02:46:05.372Z,910.49
2018-11-03T02:47:05.337Z,910.46
2018-11-03T02:48:05.319Z,910.47
2018-11-03T02:49:05.297Z,910.46
2018-11-03T02:50:05.271Z,910.43
2018-11-03T02:51:05.213Z,910.40
2018-11-03T02:52:05.195Z,910.38
2018-11-03T02:53:05.150Z,910.35
2018-11-03T02:54:05.116Z,910.38
2018-11-03T02:55:05.109Z,910.31
2018-11-03T02:56:05.053Z,910.30
2018-11-03T02:57:05.034Z,910.27
2018-11-03T02:58:05.148Z,910.27
2018-11-03T02:59:04.977Z,910.24
2018-11-03T03:00:04.967Z,910.21
2018-11-03T03:01:04.899Z,910.18
2018-11-03T03:02:04.882Z,910.16
2018-11-03T03:03:04.889Z,910.14
2018-11-03T03:04:05.193Z,910.11
2018-11-03T03:05:04.782Z,910.11
2018-11-03T03:06:04.793Z,910.12
2018-11-03T03:07:04.710Z,910.13
2018-11-03T03:08:04.772Z,910.08
2018-11-03T03:09:04.633Z,910.14
2018-11-03T03:10:04.816Z,910.14
2018-11-03T03:11:04.574Z,910.14
2018-11-03T03:12:04.543Z,910.14
2018-11-03T03:13:04.521Z,910.12
2018-11-03T03:14:04.491Z,910.17
2018-11-03T03:15:04.494Z,910.17
2018-11-03T03:16:04.420Z,910.16
2018-11-03T03:17:04.408Z,910.20
2018-11-03T03:18:04.379Z,910.17
2018-11-03T03:19:04.347Z,910.18
2018-11-03T03:20:04.312Z,910.16
2018-11-03T03:21:04.276Z,910.14
2018-11-03T03:22:04.224Z,910.15
2018-11-03T03:23:04.201Z,910.11
2018-11-03T03:24:04.175Z,910.16
2018-11-03T03:25:04.161Z,910.16
2018-11-03T03:26:04.104Z,910.11
2018-11-03T03:27:04.075Z,910.10
2018-11-03T03:28:04.059Z,910.10
2018-11-03T03:29:04.040Z,910.12
2018-11-03T03:30:03.974Z,910.09
2018-11-03T03:31:03.942Z,910.09
2018-11-03T03:32:04.058Z,910.07
2018-11-03T03:33:03.894Z,910.08
2018-11-03T03:34:03.854Z,910.05
2018-11-03T03:35:03.830Z,910.06
2018-11-03T03:36:03.815Z,910.04
2018-11-03T03:37:03.763Z,910.04
2018-11-03T03:38:03.762Z,910.04
2018-11-03T03:39:03.718Z,910.05
2018-11-03T03:40:03.655Z,910.05
2018-11-03T03:41:03.632Z,910.05
2018-11-03T03:42:03.613Z,910.01
2018-11-03T03:43:03.575Z,910.06
2018-11-03T03:44:03.542Z,910.02
2018-11-03T03:45:03.511Z,910.06
2018-11-03T03:46:03.488Z,909.98
2018-11-03T03:47:03.436Z,909.97
2018-11-03T03:48:03.405Z,909.97
2018-11-03T03:49:03.396Z,909.94
2018-11-03T03:50:03.362Z,909.92
2018-11-03T03:51:03.311Z,909.94
2018-11-03T03:52:03.287Z,909.96
2018-11-03T03:53:03.271Z,909.95
2018-11-03T03:54:03.229Z,909.91
2018-11-03T03:55:03.203Z,909.92
2018-11-03T03:56:03.161Z,909.87
2018-11-03T03:57:03.386Z,909.94
2018-11-03T03:58:03.100Z,909.88
2018-11-03T03:59:03.066Z,909.91
2018-11-03T04:00:03.037Z,909.92
2018-11-03T04:01:02.993Z,909.89
2018-11-03T04:02:02.962Z,909.90
2018-11-03T04:03:02.970Z,909.90
2018-11-03T04:04:02.930Z,909.90
2018-11-03T04:05:02.865Z,909.91
2018-11-03T04:06:02.854Z,909.92
2018-11-03T04:07:02.825Z,909.91
2018-11-03T04:08:02.773Z,909.88
2018-11-03T04:09:02.751Z,909.88
2018-11-03T04:10:02.706Z,909.93
2018-11-03T04:11:02.676Z,909.94
2018-11-03T04:12:02.672Z,910.00
2018-11-03T04:14:02.601Z,909.96
2018-11-03T04:15:02.568Z,909.94
2018-11-03T04:16:02.542Z,909.93
2018-11-03T04:17:02.515Z,909.95
2018-11-03T04:18:02.471Z,909.91
2018-11-03T04:19:02.449Z,909.90
2018-11-03T04:20:02.391Z,909.91
2018-11-03T04:21:02.406Z,909.90
2018-11-03T04:22:02.349Z,909.92
2018-11-03T04:23:02.315Z,909.93
2018-11-03T04:24:02.280Z,909.91
2018-11-03T04:25:02.250Z,909.90
2018-11-03T04:26:02.217Z,909.86
2018-11-03T04:27:02.180Z,909.87
2018-11-03T04:28:02.146Z,909.83
2018-11-03T04:29:02.431Z,909.82
2018-11-03T04:30:02.076Z,909.81
2018-11-03T04:31:02.039Z,909.78
2018-11-03T04:32:02.033Z,909.78
2018-11-03T04:33:01.993Z,909.78
2018-11-03T04:34:01.950Z,909.76
2018-11-03T04:35:02.130Z,909.79
2018-11-03T04:36:01.916Z,909.75
2018-11-03T04:37:01.876Z,909.74
2018-11-03T04:38:01.828Z,909.73
2018-11-03T04:39:01.847Z,909.73
2018-11-03T04:40:01.773Z,909.74
2018-11-03T04:41:01.765Z,909.70
2018-11-03T04:42:01.720Z,909.71
2018-11-03T04:43:01.681Z,909.68
2018-11-03T04:44:01.647Z,909.68
2018-11-03T04:45:01.627Z,909.66
2018-11-03T04:46:01.591Z,909.64
2018-11-03T04:47:01.533Z,909.62
2018-11-03T04:48:01.502Z,909.58
2018-11-03T04:49:01.481Z,909.57
2018-11-03T04:50:01.439Z,909.58
2018-11-03T04:51:01.424Z,909.55
2018-11-03T04:52:01.380Z,909.53
2018-11-03T04:53:01.348Z,909.51
2018-11-03T04:54:01.331Z,909.56
2018-11-03T04:55:01.338Z,909.50
2018-11-03T04:56:01.266Z,909.49
2018-11-03T04:57:01.289Z,909.51
2018-11-03T04:58:01.209Z,909.47
2018-11-03T04:59:01.178Z,909.47
2018-11-03T05:00:01.136Z,909.46
2018-11-03T05:01:01.091Z,909.45
2018-11-03T05:02:01.271Z,909.41
2018-11-03T05:03:01.031Z,909.41
2018-11-03T05:04:01.005Z,909.39
2018-11-03T05:05:00.977Z,909.41
2018-11-03T05:06:00.931Z,909.39
2018-11-03T05:07:00.921Z,909.36
2018-11-03T05:08:00.880Z,909.34
2018-11-03T05:09:00.833Z,909.36
2018-11-03T05:10:00.941Z,909.35
2018-11-03T05:11:00.800Z,909.36
2018-11-03T05:12:00.759Z,909.33
2018-11-03T05:13:00.725Z,909.34
2018-11-03T05:14:00.689Z,909.30
2018-11-03T05:15:00.814Z,909.29
2018-11-03T05:16:00.612Z,909.28
2018-11-03T05:17:00.579Z,909.28
2018-11-03T05:18:00.548Z,909.30
2018-11-03T05:19:00.643Z,909.24
2018-11-03T05:20:00.484Z,909.30
2018-11-03T05:21:00.523Z,909.26
2018-11-03T05:22:00.446Z,909.27
2018-11-03T05:23:00.401Z,909.27
2018-11-03T05:24:00.355Z,909.26
2018-11-03T05:25:00.351Z,909.25
2018-11-03T05:26:00.312Z,909.25
2018-11-03T05:27:00.280Z,909.24
2018-11-03T05:28:00.241Z,909.28
2018-11-03T05:29:00.223Z,909.27
2018-11-03T05:31:00.167Z,909.21
2018-11-03T05:32:00.105Z,909.22
2018-11-03T05:33:00.085Z,909.23
2018-11-03T05:34:00.056Z,909.20
2018-11-03T05:35:00.031Z,909.27
2018-11-03T05:36:00.010Z,909.25
2018-11-03T05:36:59.960Z,909.25
2018-11-03T05:37:59.924Z,909.23
2018-11-03T05:38:59.947Z,909.21
2018-11-03T05:39:59.874Z,909.21
2018-11-03T05:40:59.827Z,909.22
2018-11-03T05:41:59.797Z,909.21
2018-11-03T05:42:59.778Z,909.22
2018-11-03T05:43:59.721Z,909.23
2018-11-03T05:44:59.707Z,909.23
2018-11-03T05:45:59.656Z,909.20
2018-11-03T05:46:59.628Z,909.20
2018-11-03T05:47:59.667Z,909.21
2018-11-03T05:48:59.567Z,909.20
2018-11-03T05:49:59.530Z,909.20
2018-11-03T05:50:59.520Z,909.19
2018-11-03T05:51:59.472Z,909.20
2018-11-03T05:52:59.442Z,909.23
2018-11-03T05:53:59.411Z,909.20
2018-11-03T05:54:59.418Z,909.21
2018-11-03T05:55:59.446Z,909.21
2018-11-03T05:56:59.325Z,909.21
2018-11-03T05:57:59.305Z,909.23
2018-11-03T05:58:59.277Z,909.22
2018-11-03T05:59:59.242Z,909.22
2018-11-03T06:00:59.212Z,909.22
2018-11-03T06:01:59.348Z,909.19
2018-11-03T06:02:59.129Z,909.21
2018-11-03T06:03:59.086Z,909.21
2018-11-03T06:04:59.059Z,909.19
2018-11-03T06:05:59.020Z,909.21
2018-11-03T06:06:58.988Z,909.20
2018-11-03T06:07:59.155Z,909.21
2018-11-03T06:08:59.005Z,909.21
2018-11-03T06:09:58.917Z,909.22
2018-11-03T06:10:58.866Z,909.23
2018-11-03T06:11:58.861Z,909.21
2018-11-03T06:12:58.804Z,909.23
2018-11-03T06:13:58.773Z,909.22
2018-11-03T06:14:58.751Z,909.20
2018-11-03T06:15:58.700Z,909.20
2018-11-03T06:16:58.696Z,909.20
2018-11-03T06:17:58.654Z,909.16
2018-11-03T06:18:58.620Z,909.18
2018-11-03T06:19:58.593Z,909.18
2018-11-03T06:20:58.557Z,909.18
2018-11-03T06:21:58.517Z,909.17
2018-11-03T06:22:58.538Z,909.20
2018-11-03T06:23:58.672Z,909.18
2018-11-03T06:24:58.435Z,909.23
2018-11-03T06:25:58.395Z,909.22
2018-11-03T06:26:58.407Z,909.20
2018-11-03T06:27:58.339Z,909.24
2018-11-03T06:28:58.311Z,909.23
2018-11-03T06:29:58.264Z,909.23
2018-11-03T06:30:58.232Z,909.22
2018-11-03T06:31:58.197Z,909.25
2018-11-03T06:32:58.190Z,909.23
2018-11-03T06:33:58.189Z,909.28
2018-11-03T06:34:58.242Z,909.23
2018-11-03T06:35:58.081Z,909.25
2018-11-03T06:36:58.037Z,909.26
2018-11-03T06:37:58.006Z,909.26
2018-11-03T06:38:58.116Z,909.25
2018-11-03T06:39:57.962Z,909.22
2018-11-03T06:40:58.321Z,909.24
2018-11-03T06:41:57.873Z,909.26
2018-11-03T06:42:57.922Z,909.23
2018-11-03T06:43:57.818Z,909.19
2018-11-03T06:44:57.804Z,909.22
2018-11-03T06:45:57.812Z,909.24
2018-11-03T06:46:57.893Z,909.22
2018-11-03T06:47:57.696Z,909.23
2018-11-03T06:48:57.665Z,909.25
2018-11-03T06:49:57.640Z,909.25
2018-11-03T06:50:57.590Z,909.25
2018-11-03T06:51:57.576Z,909.29
2018-11-03T06:52:57.542Z,909.27
2018-11-03T06:53:57.493Z,909.31
2018-11-03T06:54:57.495Z,909.31
2018-11-03T06:55:57.468Z,909.35
2018-11-03T06:56:57.413Z,909.34
2018-11-03T06:57:57.383Z,909.32
2018-11-03T06:58:57.352Z,909.34
2018-11-03T06:59:57.348Z,909.33
2018-11-03T07:00:57.270Z,909.34
2018-11-03T07:01:57.253Z,909.38
2018-11-03T07:02:57.222Z,909.38
2018-11-03T07:03:57.297Z,909.32
2018-11-03T07:04:57.189Z,909.40
2018-11-03T07:05:57.129Z,909.40
2018-11-03T07:06:57.078Z,909.38
2018-11-03T07:07:57.052Z,909.39
2018-11-03T07:08:57.016Z,909.42
2018-11-03T07:09:57.196Z,909.45
2018-11-03T07:10:56.953Z,909.43
2018-11-03T07:11:56.965Z,909.42
2018-11-03T07:12:57.049Z,909.49
2018-11-03T07:13:56.862Z,909.50
2018-11-03T07:15:56.792Z,909.54
2018-11-03T07:16:56.784Z,909.54
2018-11-03T07:17:56.747Z,909.59
2018-11-03T07:18:56.719Z,909.55
2018-11-03T07:19:56.687Z,909.55
2018-11-03T07:20:56.665Z,909.60
2018-11-03T07:21:56.602Z,909.60
2018-11-03T07:22:56.584Z,909.59
2018-11-03T07:23:56.565Z,909.66
2018-11-03T07:24:56.539Z,909.64
2018-11-03T07:25:56.474Z,909.64
2018-11-03T07:26:56.464Z,909.65
2018-11-03T07:27:56.426Z,909.69
2018-11-03T07:28:56.401Z,909.69
2018-11-03T07:29:56.344Z,909.72
2018-11-03T07:30:56.341Z,909.72
2018-11-03T07:31:56.312Z,909.72
2018-11-03T07:32:56.297Z,909.73
2018-11-03T07:33:56.231Z,909.73
2018-11-03T07:34:56.208Z,909.73
2018-11-03T07:35:56.158Z,909.73
2018-11-03T07:36:56.147Z,909.70
2018-11-03T07:37:56.115Z,909.71
2018-11-03T07:38:56.084Z,909.71
2018-11-03T07:39:56.037Z,909.69
2018-11-03T07:40:56.021Z,909.71
2018-11-03T07:41:55.980Z,909.74
2018-11-03T07:42:55.943Z,909.74
2018-11-03T07:43:55.917Z,909.73
2018-11-03T07:44:55.885Z,909.72
2018-11-03T07:45:55.845Z,909.77
2018-11-03T07:46:55.809Z,909.73
2018-11-03T07:47:55.816Z,909.75
2018-11-03T07:48:55.876Z,909.75
2018-11-03T07:49:55.726Z,909.79
2018-11-03T07:50:55.676Z,909.80
2018-11-03T07:51:55.682Z,909.77
2018-11-03T07:52:55.617Z,909.77
2018-11-03T07:53:55.605Z,909.78
2018-11-03T07:54:55.620Z,909.77
2018-11-03T07:55:55.525Z,909.78
2018-11-03T07:56:55.581Z,909.79
2018-11-03T07:57:55.753Z,909.80
2018-11-03T07:58:55.430Z,909.77
2018-11-03T07:59:55.407Z,909.77
2018-11-03T08:00:55.369Z,909.74
2018-11-03T08:01:55.327Z,909.76
2018-11-03T08:02:55.297Z,909.75
2018-11-03T08:03:55.314Z,909.77
2018-11-03T08:04:55.269Z,909.74
2018-11-03T08:05:55.199Z,909.76
2018-11-03T08:06:55.172Z,909.76
2018-11-03T08:07:55.158Z,909.77
2018-11-03T08:08:55.347Z,909.73
2018-11-03T08:09:55.084Z,909.77
2018-11-03T08:10:55.062Z,909.77
2018-11-03T08:11:55.022Z,909.77
2018-11-03T08:12:54.992Z,909.76
2018-11-03T08:13:54.972Z,909.74
2018-11-03T08:14:55.221Z,909.78
2018-11-03T08:15:54.936Z,909.80
2018-11-03T08:16:54.863Z,909.81
2018-11-03T08:17:54.831Z,909.82
2018-11-03T08:18:54.810Z,909.85
2018-11-03T08:19:54.754Z,909.84
2018-11-03T08:20:54.745Z,909.85
2018-11-03T08:21:54.725Z,909.92
2018-11-03T08:22:54.662Z,909.90
2018-11-03T08:23:54.700Z,909.93
2018-11-03T08:24:54.594Z,909.96
2018-11-03T08:25:54.762Z,909.98
2018-11-03T08:26:54.559Z,909.95
2018-11-03T08:27:54.499Z,909.96
2018-11-03T08:28:54.467Z,910.00
2018-11-03T08:29:54.449Z,910.02
2018-11-03T08:30:54.466Z,910.02
2018-11-03T08:31:54.378Z,910.02
2018-11-03T08:32:54.371Z,910.04
2018-11-03T08:33:54.341Z,910.07
2018-11-03T08:34:54.294Z,910.10
2018-11-03T08:35:54.284Z,910.10
2018-11-03T08:36:54.344Z,910.12
2018-11-03T08:37:54.197Z,910.12
2018-11-03T08:38:54.167Z,910.12
2018-11-03T08:39:54.130Z,910.14
2018-11-03T08:40:54.138Z,910.16
2018-11-03T08:41:54.050Z,910.15
2018-11-03T08:42:54.170Z,910.14
2018-11-03T08:43:53.987Z,910.16
2018-11-03T08:44:53.960Z,910.19
2018-11-03T08:45:53.936Z,910.14
2018-11-03T08:46:53.917Z,910.17
2018-11-03T08:47:53.888Z,910.12
2018-11-03T08:48:53.953Z,910.14
2018-11-03T08:49:53.793Z,910.15
2018-11-03T08:50:53.769Z,910.17
2018-11-03T08:51:53.757Z,910.17
2018-11-03T08:52:53.700Z,910.14
2018-11-03T08:53:53.699Z,910.18
2018-11-03T08:54:53.660Z,910.17
2018-11-03T08:55:53.618Z,910.18
2018-11-03T08:56:53.723Z,910.20
2018-11-03T08:57:53.566Z,910.19
2018-11-03T08:58:53.808Z,910.20
2018-11-03T08:59:53.648Z,910.20
2018-11-03T09:00:53.447Z,910.18
2018-11-03T09:01:53.428Z,910.16
2018-11-03T09:02:53.395Z,910.21
2018-11-03T09:03:53.350Z,910.21
2018-11-03T09:04:53.321Z,910.20
2018-11-03T09:05:53.307Z,910.24
2018-11-03T09:06:53.326Z,910.24
2018-11-03T09:07:53.237Z,910.27
2018-11-03T09:08:53.203Z,910.26
2018-11-03T09:09:53.155Z,910.30
2018-11-03T09:10:53.139Z,910.30
2018-11-03T09:11:53.129Z,910.29
2018-11-03T09:12:53.060Z,910.31
2018-11-03T09:13:53.028Z,910.30
2018-11-03T09:14:53.084Z,910.33
2018-11-03T09:15:52.966Z,910.32
2018-11-03T09:16:52.956Z,910.37
2018-11-03T09:17:52.919Z,910.38
2018-11-03T09:18:52.951Z,910.41
2018-11-03T09:19:52.865Z,910.42
2018-11-03T09:20:52.819Z,910.45
2018-11-03T09:21:52.903Z,910.47
2018-11-03T09:22:52.742Z,910.47
2018-11-03T09:23:52.714Z,910.50
2018-11-03T09:24:52.684Z,910.48
2018-11-03T09:25:52.675Z,910.51
2018-11-03T09:26:52.626Z,910.52
2018-11-03T09:27:52.606Z,910.54
2018-11-03T09:28:52.551Z,910.57
2018-11-03T09:29:52.535Z,910.56
2018-11-03T09:30:52.639Z,910.59
2018-11-03T09:31:52.567Z,910.59
2018-11-03T09:32:52.422Z,910.60
2018-11-03T09:33:52.389Z,910.61
2018-11-03T09:34:52.359Z,910.66
2018-11-03T09:35:52.344Z,910.65
2018-11-03T09:36:52.319Z,910.67
2018-11-03T09:37:52.277Z,910.69
2018-11-03T09:38:52.285Z,910.71
2018-11-03T09:39:52.213Z,910.69
2018-11-03T09:40:52.183Z,910.73
2018-11-03T09:41:52.135Z,910.71
2018-11-03T09:42:52.130Z,910.74
2018-11-03T09:43:52.098Z,910.74
2018-11-03T09:44:52.081Z,910.76
2018-11-03T09:45:52.028Z,910.78
2018-11-03T09:46:52.043Z,910.78
2018-11-03T09:47:51.949Z,910.76
2018-11-03T09:48:51.922Z,910.79
2018-11-03T09:49:51.890Z,910.80
2018-11-03T09:50:51.918Z,910.86
2018-11-03T09:51:51.834Z,910.84
2018-11-03T09:52:51.827Z,910.84
2018-11-03T09:53:51.779Z,910.84
2018-11-03T09:54:51.754Z,910.86
2018-11-03T09:55:51.689Z,910.89
2018-11-03T09:56:51.679Z,910.89
2018-11-03T09:57:51.646Z,910.90
2018-11-03T09:58:51.598Z,910.90
2018-11-03T09:59:51.570Z,910.88
2018-11-03T10:00:51.537Z,910.92
2018-11-03T10:01:51.654Z,910.95
2018-11-03T10:02:51.488Z,910.92
2018-11-03T10:03:51.449Z,910.96
2018-11-03T10:04:51.406Z,910.97
2018-11-03T10:05:51.384Z,910.95
2018-11-03T10:06:51.341Z,910.94
2018-11-03T10:07:51.487Z,910.94
2018-11-03T10:08:51.280Z,910.95
2018-11-03T10:09:51.261Z,910.99
2018-11-03T10:10:51.220Z,910.98
2018-11-03T10:11:51.191Z,910.99
2018-11-03T10:12:51.158Z,910.97
2018-11-03T10:13:51.340Z,911.01
2018-11-03T10:14:51.103Z,911.00
2018-11-03T10:15:51.102Z,911.04
2018-11-03T10:16:51.034Z,911.03
2018-11-03T10:17:51.022Z,911.05
2018-11-03T10:18:50.962Z,911.06
2018-11-03T10:19:50.945Z,911.07
2018-11-03T10:20:50.915Z,911.09
2018-11-03T10:21:50.874Z,911.14
2018-11-03T10:22:50.920Z,911.11
2018-11-03T10:23:50.816Z,911.14
2018-11-03T10:24:50.795Z,911.14
2018-11-03T10:25:50.771Z,911.13
2018-11-03T10:26:50.725Z,911.14
2018-11-03T10:27:50.702Z,911.15
2018-11-03T10:28:50.648Z,911.17
2018-11-03T10:29:50.616Z,911.18
2018-11-03T10:30:50.619Z,911.20
2018-11-03T10:31:50.566Z,911.19
2018-11-03T10:32:50.540Z,911.19
2018-11-03T10:33:50.589Z,911.22
2018-11-03T10:34:50.657Z,911.23
2018-11-03T10:35:50.436Z,911.25
2018-11-03T10:36:50.418Z,911.19
2018-11-03T10:37:50.359Z,911.23
2018-11-03T10:38:50.351Z,911.22
2018-11-03T10:39:50.303Z,911.26
2018-11-03T10:40:50.445Z,911.26
2018-11-03T10:41:50.289Z,911.25
2018-11-03T10:42:50.227Z,911.29
2018-11-03T10:43:50.192Z,911.31
2018-11-03T10:44:50.141Z,911.33
2018-11-03T10:45:50.112Z,911.35
2018-11-03T10:46:50.493Z,911.37
2018-11-03T10:47:50.061Z,911.41
2018-11-03T10:48:50.029Z,911.41
2018-11-03T10:49:49.983Z,911.45
2018-11-03T10:50:49.951Z,911.44
2018-11-03T10:51:49.924Z,911.47
2018-11-03T10:52:49.941Z,911.52
2018-11-03T10:53:49.951Z,911.52
2018-11-03T10:54:49.825Z,911.55
2018-11-03T10:55:49.836Z,911.59
2018-11-03T10:56:49.770Z,911.59
2018-11-03T10:57:49.746Z,911.65
2018-11-03T10:58:49.722Z,911.66
2018-11-03T10:59:49.691Z,911.67
2018-11-03T11:00:49.666Z,911.65
2018-11-03T11:01:49.628Z,911.63
2018-11-03T11:02:49.663Z,911.67
2018-11-03T11:03:49.760Z,911.68
2018-11-03T11:04:49.539Z,911.72
2018-11-03T11:05:49.495Z,911.69
2018-11-03T11:06:49.453Z,911.71
2018-11-03T11:07:49.420Z,911.70
2018-11-03T11:08:49.405Z,911.71
2018-11-03T11:09:49.373Z,911.72
2018-11-03T11:10:49.353Z,911.69
2018-11-03T11:11:49.317Z,911.74
2018-11-03T11:12:49.271Z,911.72
2018-11-03T11:14:49.232Z,911.75
2018-11-03T11:15:49.200Z,911.77
2018-11-03T11:16:49.266Z,911.78
2018-11-03T11:17:49.114Z,911.79
2018-11-03T11:18:49.097Z,911.79
2018-11-03T11:19:49.079Z,911.80
2018-11-03T11:20:49.055Z,911.81
2018-11-03T11:21:49.000Z,911.82
2018-11-03T11:22:48.980Z,911.83
2018-11-03T11:23:48.998Z,911.83
2018-11-03T11:24:48.982Z,911.86
2018-11-03T11:25:48.875Z,911.85
2018-11-03T11:26:48.860Z,911.90
2018-11-03T11:27:48.813Z,911.92
2018-11-03T11:28:48.911Z,911.90
2018-11-03T11:29:48.767Z,911.94
2018-11-03T11:30:48.728Z,911.97
2018-11-03T11:31:48.708Z,911.92
2018-11-03T11:32:48.709Z,911.90
2018-11-03T11:33:48.636Z,911.91
2018-11-03T11:34:48.614Z,911.90
2018-11-03T11:35:48.582Z,911.90
2018-11-03T11:36:48.549Z,911.96
2018-11-03T11:37:48.502Z,911.93
2018-11-03T11:38:48.478Z,911.91
2018-11-03T11:39:48.480Z,911.87
2018-11-03T11:40:48.449Z,911.88
2018-11-03T11:41:48.383Z,911.84
2018-11-03T11:42:48.375Z,911.85
2018-11-03T11:43:48.340Z,911.81
2018-11-03T11:44:48.492Z,911.79
2018-11-03T11:45:48.294Z,911.77
2018-11-03T11:46:48.279Z,911.78
2018-11-03T11:47:48.235Z,911.71
2018-11-03T11:48:48.165Z,911.76
2018-11-03T11:49:48.145Z,911.75
2018-11-03T11:50:48.121Z,911.69
2018-11-03T11:51:48.109Z,911.71
2018-11-03T11:52:48.060Z,911.73
2018-11-03T11:53:48.038Z,911.75
2018-11-03T11:54:48.065Z,911.72
2018-11-03T11:55:47.977Z,911.74
2018-11-03T11:56:47.945Z,911.73
2018-11-03T11:57:47.926Z,911.74
2018-11-03T11:58:47.889Z,911.72
2018-11-03T11:59:47.849Z,911.63
2018-11-03T12:00:47.927Z,911.66
2018-11-03T12:01:47.832Z,911.67
2018-11-03T12:02:47.817Z,911.68
2018-11-03T12:03:47.750Z,911.68
2018-11-03T12:04:47.733Z,911.69
2018-11-03T12:05:47.677Z,911.71
2018-11-03T12:06:47.668Z,911.71
2018-11-03T12:07:47.625Z,911.67
2018-11-03T12:08:47.579Z,911.71
2018-11-03T12:09:47.620Z,911.63
2018-11-03T12:10:47.518Z,911.63
2018-11-03T12:11:47.866Z,911.65
2018-11-03T12:12:47.481Z,911.68
2018-11-03T12:13:47.446Z,911.69
2018-11-03T12:14:47.411Z,911.71
2018-11-03T12:15:47.387Z,911.72
2018-11-03T12:16:47.389Z,911.80
2018-11-03T12:17:47.331Z,911.79
2018-11-03T12:18:47.331Z,911.81
2018-11-03T12:19:47.292Z,911.86
2018-11-03T12:20:47.244Z,911.88
2018-11-03T12:21:47.242Z,911.94
2018-11-03T12:22:47.197Z,911.97
2018-11-03T12:23:47.151Z,911.96
2018-11-03T12:24:47.147Z,911.97
2018-11-03T12:25:47.166Z,911.95
2018-11-03T12:26:47.203Z,911.96
2018-11-03T12:27:47.038Z,911.96
2018-11-03T12:28:47.003Z,912.01
2018-11-03T12:29:46.986Z,911.98
2018-11-03T12:30:46.973Z,912.00
2018-11-03T12:31:46.962Z,912.02
2018-11-03T12:32:46.938Z,912.00
2018-11-03T12:33:46.895Z,912.00
2018-11-03T12:34:46.846Z,912.04
2018-11-03T12:35:46.816Z,912.07